createdAt,value
2019-05-10T00:02:13.648Z,12.10
2019-05-10T00:08:36.721Z,12.08
2019-05-10T00:14:51.431Z,12.09
2019-05-10T00:20:55.999Z,11.98
2019-05-10T00:27:00.624Z,11.99
2019-05-10T00:33:05.169Z,12.21
2019-05-10T00:39:09.854Z,12.01
2019-05-10T00:45:14.663Z,12.01
2019-05-10T00:51:19.290Z,12.03
2019-05-10T00:57:23.850Z,12.10
2019-05-10T01:03:28.389Z,11.93
2019-05-10T01:09:32.953Z,11.98
2019-05-10T01:15:37.505Z,11.76
2019-05-10T01:21:42.126Z,11.87
2019-05-10T01:27:46.823Z,11.74
2019-05-10T01:33:51.379Z,11.82
2019-05-10T01:39:55.934Z,11.76
2019-05-10T01:46:00.478Z,11.72
2019-05-10T01:52:05.188Z,11.54
2019-05-10T01:58:09.828Z,11.48
2019-05-10T02:04:17.528Z,11.38
2019-05-10T02:10:20.857Z,11.35
2019-05-10T02:16:25.492Z,11.31
2019-05-10T02:22:30.053Z,11.35
2019-05-10T02:28:34.682Z,11.32
2019-05-10T02:34:39.254Z,11.35
2019-05-10T02:40:43.939Z,11.35
2019-05-10T02:46:48.591Z,11.34
2019-05-10T02:52:53.129Z,11.40
2019-05-10T02:58:58.438Z,11.32
2019-05-10T03:05:06.394Z,11.27
2019-05-10T03:11:13.951Z,11.47
2019-05-10T03:17:20.495Z,11.46
2019-05-10T03:23:26.391Z,11.49
2019-05-10T03:29:31.028Z,11.50
2019-05-10T03:35:35.571Z,11.43
2019-05-10T03:41:40.415Z,11.43
2019-05-10T03:47:45.033Z,11.51
2019-05-10T03:53:49.585Z,11.38
2019-05-10T03:59:54.147Z,11.40
2019-05-10T04:05:58.772Z,11.45
2019-05-10T04:12:03.354Z,11.27
2019-05-10T04:18:07.965Z,11.48
2019-05-10T04:24:12.529Z,11.41
2019-05-10T04:30:18.104Z,11.70
2019-05-10T04:36:22.659Z,11.62
2019-05-10T04:42:27.234Z,11.79
2019-05-10T04:48:31.804Z,11.65
2019-05-10T04:54:36.357Z,11.93
2019-05-10T05:00:40.912Z,11.75
2019-05-10T05:06:45.461Z,11.66
2019-05-10T05:12:50.013Z,11.62
2019-05-10T05:18:54.591Z,11.63
2019-05-10T05:25:01.136Z,11.64
2019-05-10T05:31:05.434Z,11.55
2019-05-10T05:37:09.969Z,11.53
2019-05-10T05:43:14.523Z,11.66
2019-05-10T05:49:19.079Z,11.92
2019-05-10T05:55:23.630Z,12.01
2019-05-10T06:01:29.485Z,12.18
2019-05-10T06:07:37.913Z,12.11
2019-05-10T06:13:40.720Z,12.61
2019-05-10T06:19:45.280Z,13.11
2019-05-10T06:25:49.915Z,12.82
2019-05-10T06:31:54.476Z,12.51
2019-05-10T06:37:59.087Z,12.34
2019-05-10T06:44:03.706Z,12.29
2019-05-10T06:50:09.413Z,12.73
2019-05-10T06:56:14.072Z,12.81
2019-05-10T07:02:20.129Z,13.03
2019-05-10T07:08:24.990Z,13.59
2019-05-10T07:14:29.541Z,13.54
2019-05-10T07:20:34.091Z,13.64
2019-05-10T07:26:38.662Z,13.56
2019-05-10T07:32:43.304Z,13.50
2019-05-10T07:38:47.882Z,13.95
2019-05-10T07:44:52.431Z,13.99
2019-05-10T07:50:56.997Z,13.87
2019-05-10T07:57:01.604Z,13.96
2019-05-10T08:03:15.806Z,14.03
2019-05-10T08:09:12.778Z,14.19
2019-05-10T08:15:19.534Z,14.35
2019-05-10T08:21:26.247Z,14.15
2019-05-10T08:27:32.316Z,13.70
2019-05-10T08:33:36.398Z,13.38
2019-05-10T08:39:45.400Z,12.91
2019-05-10T08:45:49.498Z,12.73
2019-05-10T08:51:53.768Z,12.88
2019-05-10T08:58:02.922Z,12.63
2019-05-10T09:04:22.243Z,12.57
2019-05-10T09:10:27.114Z,12.99
2019-05-10T09:16:39.420Z,13.03
2019-05-10T09:22:38.970Z,12.88
2019-05-10T09:28:47.678Z,12.84
2019-05-10T09:34:54.130Z,13.17
2019-05-10T09:41:02.450Z,13.63
2019-05-10T09:47:07.212Z,13.90
2019-05-10T09:53:13.541Z,13.82
2019-05-10T09:59:18.064Z,13.68
2019-05-10T10:05:26.935Z,13.71
2019-05-10T10:11:31.808Z,13.64
2019-05-10T10:17:41.967Z,13.57
2019-05-10T10:23:43.783Z,13.79
2019-05-10T10:29:49.012Z,14.09
2019-05-10T10:35:56.461Z,14.77
2019-05-10T10:42:08.955Z,15.10
2019-05-10T10:48:13.059Z,15.06
2019-05-10T10:54:22.420Z,14.29
2019-05-10T11:00:39.282Z,13.94
2019-05-10T11:06:48.515Z,14.08
2019-05-10T11:12:56.226Z,14.50
2019-05-10T11:19:03.583Z,15.41
2019-05-10T11:25:12.036Z,15.77
2019-05-10T11:31:16.121Z,16.05
2019-05-10T11:37:31.079Z,16.46
2019-05-10T11:43:31.361Z,16.30
2019-05-10T11:49:40.751Z,16.45
2019-05-10T11:55:48.602Z,16.57
2019-05-10T12:01:58.039Z,16.09
2019-05-10T12:08:02.128Z,15.45
2019-05-10T12:14:07.122Z,15.26
2019-05-10T12:20:16.708Z,15.89
2019-05-10T12:32:27.077Z,16.81
2019-05-10T12:38:35.693Z,18.06
2019-05-10T12:44:38.856Z,21.18
2019-05-10T12:50:46.185Z,20.74
2019-05-10T12:56:50.939Z,18.99
2019-05-10T13:03:10.262Z,16.10
2019-05-10T13:09:02.014Z,14.36
2019-05-10T13:15:08.022Z,14.08
2019-05-10T13:21:20.022Z,16.02
2019-05-10T13:27:20.035Z,18.06
2019-05-10T13:33:28.974Z,18.25
2019-05-10T13:39:30.980Z,17.99
2019-05-10T13:45:37.623Z,17.04
2019-05-10T13:51:41.921Z,16.21
2019-05-10T13:57:46.477Z,15.92
2019-05-10T14:04:00.086Z,15.06
2019-05-10T14:09:57.306Z,14.44
2019-05-10T14:16:01.864Z,14.02
2019-05-10T14:22:06.426Z,13.82
2019-05-10T14:28:15.711Z,13.47
2019-05-10T14:34:17.310Z,13.32
2019-05-10T14:40:27.604Z,13.30
2019-05-10T14:46:28.213Z,13.07
2019-05-10T14:52:32.781Z,13.02
2019-05-10T14:58:37.406Z,12.88
2019-05-10T15:04:44.959Z,13.14
2019-05-10T15:10:48.267Z,13.14
2019-05-10T15:16:52.821Z,12.98
2019-05-10T15:22:57.395Z,13.02
2019-05-10T15:29:01.950Z,12.86
2019-05-10T15:35:08.889Z,12.72
2019-05-10T15:41:16.893Z,12.69
2019-05-10T15:47:22.032Z,12.69
2019-05-10T15:53:27.395Z,12.74
2019-05-10T15:59:32.255Z,12.31
2019-05-10T16:05:43.407Z,12.37
2019-05-10T16:11:43.092Z,12.11
2019-05-10T16:17:47.878Z,11.97
2019-05-10T16:23:52.678Z,11.98
2019-05-10T16:29:57.358Z,12.13
2019-05-10T16:36:02.106Z,13.34
2019-05-10T16:42:06.788Z,13.63
2019-05-10T16:48:11.507Z,13.32
2019-05-10T16:54:24.607Z,13.38
2019-05-10T17:00:23.604Z,13.24
2019-05-10T17:06:28.450Z,13.05
2019-05-10T17:12:33.483Z,13.19
2019-05-10T17:18:38.091Z,13.17
2019-05-10T17:24:42.749Z,13.12
2019-05-10T17:30:47.416Z,13.65
2019-05-10T17:36:58.117Z,14.38
2019-05-10T17:42:58.677Z,15.90
2019-05-10T17:49:03.276Z,14.99
2019-05-10T17:55:10.828Z,14.41
2019-05-10T18:01:14.610Z,13.92
2019-05-10T18:07:19.600Z,13.41
2019-05-10T18:13:24.262Z,13.02
2019-05-10T18:19:28.872Z,12.53
2019-05-10T18:25:34.415Z,12.37
2019-05-10T18:31:39.076Z,12.38
2019-05-10T18:37:44.533Z,12.39
2019-05-10T18:43:49.130Z,12.19
2019-05-10T18:49:53.833Z,11.95
2019-05-10T18:55:58.477Z,11.37
2019-05-10T19:02:03.232Z,11.29
2019-05-10T19:08:08.035Z,10.85
2019-05-10T19:14:12.825Z,10.72
2019-05-10T19:20:18.491Z,10.59
2019-05-10T19:26:23.834Z,10.62
2019-05-10T19:32:29.687Z,10.56
2019-05-10T19:38:34.277Z,10.27
2019-05-10T19:44:40.545Z,10.24
2019-05-10T19:50:45.253Z,10.23
2019-05-10T19:56:49.838Z,9.99
2019-05-10T20:02:54.432Z,9.79
2019-05-10T20:08:59.683Z,9.59
2019-05-10T20:15:06.065Z,9.53
2019-05-10T20:21:10.655Z,9.25
2019-05-10T20:27:15.244Z,9.24
2019-05-10T20:33:19.894Z,9.15
2019-05-10T20:39:24.437Z,8.87
2019-05-10T20:45:28.994Z,8.93
2019-05-10T20:51:33.596Z,9.22
2019-05-10T20:57:38.213Z,8.84
2019-05-10T21:03:42.863Z,8.82
2019-05-10T21:09:47.598Z,8.59
2019-05-10T21:15:52.133Z,8.62
2019-05-10T21:21:56.689Z,8.81
2019-05-10T21:28:01.246Z,8.75
2019-05-10T21:34:09.559Z,8.82
2019-05-10T21:40:12.646Z,8.91
2019-05-10T21:46:17.215Z,8.98
2019-05-10T21:52:21.834Z,9.08
2019-05-10T21:58:26.437Z,9.18
2019-05-10T22:04:30.976Z,9.28
2019-05-10T22:10:35.538Z,9.37
2019-05-10T22:16:40.108Z,9.59
2019-05-10T22:22:44.667Z,9.43
2019-05-10T22:28:49.209Z,9.56
2019-05-10T22:34:53.735Z,9.51
2019-05-10T22:40:58.286Z,9.43
2019-05-10T22:47:02.837Z,9.40
2019-05-10T22:53:07.471Z,9.26
2019-05-10T22:59:12.090Z,9.14
2019-05-10T23:05:16.863Z,9.07
2019-05-10T23:11:21.409Z,9.30
2019-05-10T23:17:25.977Z,9.18
2019-05-10T23:23:30.522Z,9.28
2019-05-10T23:29:35.689Z,8.95
2019-05-10T23:35:40.244Z,9.11
2019-05-10T23:41:44.867Z,9.00
2019-05-10T23:47:49.429Z,9.03
2019-05-10T23:53:54.020Z,9.35
2019-05-10T23:59:58.572Z,9.02
